createdAt,value
2022-10-10T00:00:52.304Z,59.12
2022-10-10T00:03:22.934Z,58.93
2022-10-10T00:05:53.085Z,59.30
2022-10-10T00:08:23.282Z,58.83
2022-10-10T00:10:56.048Z,58.23
2022-10-10T00:13:26.342Z,58.21
2022-10-10T00:15:56.681Z,58.47
2022-10-10T00:18:26.955Z,57.99
2022-10-10T00:20:57.334Z,57.87
2022-10-10T00:23:27.702Z,57.36
2022-10-10T00:26:01.374Z,57.50
2022-10-10T00:28:33.817Z,57.16
2022-10-10T00:31:04.052Z,56.89
2022-10-10T00:33:34.220Z,56.48
2022-10-10T00:36:04.425Z,56.15
2022-10-10T00:38:35.466Z,55.48
2022-10-10T00:41:09.018Z,55.08
2022-10-10T00:43:39.423Z,54.83
2022-10-10T00:46:09.803Z,54.24
2022-10-10T00:48:44.006Z,53.43
2022-10-10T00:51:18.207Z,52.06
2022-10-10T00:53:52.535Z,52.37
2022-10-10T00:56:30.970Z,51.04
2022-10-10T00:59:07.222Z,51.21
2022-10-10T01:01:37.523Z,50.76
2022-10-10T01:04:08.170Z,50.30
2022-10-10T01:06:38.396Z,50.05
2022-10-10T01:09:08.583Z,49.58
2022-10-10T01:11:55.483Z,48.87
2022-10-10T01:14:41.579Z,49.54
2022-10-10T01:17:22.519Z,48.99
2022-10-10T01:20:42.807Z,49.57
2022-10-10T01:23:58.945Z,49.34
2022-10-10T01:27:07.807Z,49.63
2022-10-10T01:29:42.651Z,50.06
2022-10-10T01:32:20.020Z,50.42
2022-10-10T01:35:04.819Z,50.77
2022-10-10T01:37:47.142Z,51.00
2022-10-10T01:40:27.967Z,51.41
2022-10-10T01:43:02.837Z,51.67
2022-10-10T01:45:35.715Z,52.22
2022-10-10T01:48:08.865Z,52.49
2022-10-10T01:50:53.876Z,52.90
2022-10-10T01:53:31.663Z,53.61
2022-10-10T01:56:11.600Z,53.75
2022-10-10T01:58:58.324Z,53.99
2022-10-10T02:01:38.852Z,54.18
2022-10-10T02:04:16.793Z,54.69
2022-10-10T02:06:54.089Z,54.73
2022-10-10T02:09:32.877Z,55.20
2022-10-10T02:12:03.720Z,55.58
2022-10-10T02:14:39.165Z,55.89
2022-10-10T02:17:16.345Z,56.40
2022-10-10T02:19:50.910Z,56.74
2022-10-10T02:22:22.630Z,57.03
2022-10-10T02:24:54.478Z,56.95
2022-10-10T02:27:32.443Z,57.44
2022-10-10T02:30:04.054Z,57.80
2022-10-10T02:32:43.537Z,58.08
2022-10-10T02:35:20.141Z,58.26
2022-10-10T02:37:51.808Z,58.57
2022-10-10T02:40:27.714Z,59.08
2022-10-10T02:43:00.885Z,59.16
2022-10-10T02:45:33.364Z,59.53
2022-10-10T02:48:07.145Z,59.48
2022-10-10T02:50:38.307Z,59.83
2022-10-10T02:53:08.711Z,59.84
2022-10-10T02:55:38.897Z,59.96
2022-10-10T02:58:09.295Z,60.36
2022-10-10T03:00:39.465Z,60.24
2022-10-10T03:03:12.179Z,60.12
2022-10-10T03:05:42.309Z,60.09
2022-10-10T03:08:12.533Z,60.47
2022-10-10T03:10:42.688Z,60.57
2022-10-10T03:13:12.823Z,60.83
2022-10-10T03:15:42.914Z,60.89
2022-10-10T03:18:15.623Z,61.07
2022-10-10T03:20:48.454Z,60.79
2022-10-10T03:23:18.553Z,60.78
2022-10-10T03:25:49.189Z,60.92
2022-10-10T03:28:19.897Z,60.25
2022-10-10T03:30:50.453Z,60.27
2022-10-10T03:33:23.375Z,60.14
2022-10-10T03:35:53.578Z,59.93
2022-10-10T03:38:23.761Z,59.60
2022-10-10T03:40:53.950Z,59.75
2022-10-10T03:43:24.122Z,59.78
2022-10-10T03:45:54.360Z,59.93
2022-10-10T03:48:27.160Z,60.19
2022-10-10T03:50:57.235Z,60.62
2022-10-10T03:53:27.307Z,60.65
2022-10-10T03:55:57.764Z,60.95
2022-10-10T03:58:28.080Z,61.06
2022-10-10T04:00:58.810Z,61.33
2022-10-10T04:03:32.404Z,61.33
2022-10-10T04:06:02.803Z,61.16
2022-10-10T04:08:33.027Z,61.30
2022-10-10T04:11:03.099Z,60.96
2022-10-10T04:13:33.200Z,60.82
2022-10-10T04:16:03.846Z,60.60
2022-10-10T04:18:36.683Z,61.11
2022-10-10T04:21:07.754Z,60.54
2022-10-10T04:23:37.954Z,61.15
2022-10-10T04:26:08.499Z,61.64
2022-10-10T04:28:38.755Z,62.79
2022-10-10T04:31:09.441Z,62.72
2022-10-10T04:33:42.228Z,61.70
2022-10-10T04:36:12.357Z,61.60
2022-10-10T04:38:42.435Z,61.51
2022-10-10T04:41:15.547Z,61.09
2022-10-10T04:43:45.595Z,60.77
2022-10-10T04:46:15.744Z,60.92
2022-10-10T04:48:48.494Z,61.38
2022-10-10T04:51:18.741Z,61.31
2022-10-10T04:53:50.610Z,60.75
2022-10-10T04:56:20.971Z,60.54
2022-10-10T04:58:51.486Z,60.54
2022-10-10T05:01:21.852Z,61.39
2022-10-10T05:03:54.652Z,61.57
2022-10-10T05:06:24.809Z,61.63
2022-10-10T05:08:54.878Z,61.17
2022-10-10T05:11:25.039Z,61.85
2022-10-10T05:13:55.139Z,62.27
2022-10-10T05:16:25.269Z,62.08
2022-10-10T05:18:58.088Z,62.13
2022-10-10T05:21:28.619Z,62.11
2022-10-10T05:23:58.737Z,62.51
2022-10-10T05:26:29.034Z,62.30
2022-10-10T05:28:59.143Z,62.63
2022-10-10T05:31:29.316Z,62.76
2022-10-10T05:34:02.610Z,63.07
2022-10-10T05:36:32.725Z,63.05
2022-10-10T05:39:03.525Z,63.31
2022-10-10T05:41:33.563Z,63.33
2022-10-10T05:44:03.716Z,63.41
2022-10-10T05:46:33.863Z,63.51
2022-10-10T05:49:06.652Z,63.73
2022-10-10T05:51:36.872Z,63.73
2022-10-10T05:54:07.785Z,63.93
2022-10-10T05:56:37.954Z,63.99
2022-10-10T05:59:08.323Z,64.22
2022-10-10T06:01:39.660Z,64.00
2022-10-10T06:04:12.339Z,63.83
2022-10-10T06:06:42.522Z,63.90
2022-10-10T06:09:13.155Z,63.66
2022-10-10T06:11:43.327Z,63.21
2022-10-10T06:14:13.942Z,62.85
2022-10-10T06:16:45.528Z,62.99
2022-10-10T06:19:18.321Z,62.87
2022-10-10T06:21:48.546Z,62.86
2022-10-10T06:24:18.665Z,62.83
2022-10-10T06:26:48.750Z,62.69
2022-10-10T06:29:18.891Z,62.80
2022-10-10T06:31:48.984Z,63.01
2022-10-10T06:34:21.898Z,62.76
2022-10-10T06:36:53.100Z,62.70
2022-10-10T06:39:23.293Z,62.86
2022-10-10T06:41:53.518Z,63.08
2022-10-10T06:44:23.887Z,62.99
2022-10-10T06:46:54.048Z,62.74
2022-10-10T06:49:26.931Z,62.33
2022-10-10T06:51:57.084Z,62.54
2022-10-10T06:54:27.203Z,62.61
2022-10-10T06:56:57.338Z,62.54
2022-10-10T06:59:27.422Z,62.34
2022-10-10T07:01:57.619Z,62.17
2022-10-10T07:04:30.407Z,61.75
2022-10-10T07:07:00.601Z,62.19
2022-10-10T07:09:30.662Z,62.03
2022-10-10T07:12:00.803Z,61.42
2022-10-10T07:14:30.885Z,61.77
2022-10-10T07:17:01.031Z,61.69
2022-10-10T07:19:33.769Z,61.29
2022-10-10T07:22:03.939Z,60.92
2022-10-10T07:24:34.107Z,59.51
2022-10-10T07:27:08.958Z,58.98
2022-10-10T07:29:39.704Z,58.83
2022-10-10T07:32:10.089Z,58.77
2022-10-10T07:34:42.870Z,58.57
2022-10-10T07:37:13.026Z,58.69
2022-10-10T07:39:43.421Z,58.84
2022-10-10T07:42:13.618Z,58.19
2022-10-10T07:44:43.716Z,57.54
2022-10-10T07:47:13.932Z,57.78
2022-10-10T07:49:46.801Z,56.97
2022-10-10T07:52:17.770Z,56.87
2022-10-10T07:54:47.709Z,55.66
2022-10-10T07:57:17.851Z,54.89
2022-10-10T07:59:48.487Z,54.21
2022-10-10T08:02:18.679Z,54.41
2022-10-10T08:04:51.528Z,54.30
2022-10-10T08:07:22.112Z,53.93
2022-10-10T08:09:52.269Z,53.10
2022-10-10T08:12:22.474Z,52.13
2022-10-10T08:14:52.746Z,50.70
2022-10-10T08:17:23.140Z,50.19
2022-10-10T08:19:55.922Z,50.54
2022-10-10T08:22:26.185Z,50.81
2022-10-10T08:24:56.335Z,50.92
2022-10-10T08:27:26.798Z,52.26
2022-10-10T08:29:57.044Z,52.96
2022-10-10T08:32:27.310Z,52.46
2022-10-10T08:35:00.059Z,52.19
2022-10-10T08:37:33.959Z,49.93
2022-10-10T08:40:09.276Z,47.21
2022-10-10T08:42:51.725Z,45.40
2022-10-10T08:45:27.741Z,44.38
2022-10-10T08:48:01.356Z,42.71
2022-10-10T08:50:39.587Z,40.83
2022-10-10T08:53:16.154Z,40.87
2022-10-10T08:55:47.900Z,40.01
2022-10-10T08:58:26.743Z,41.34
2022-10-10T09:01:08.147Z,43.30
2022-10-10T09:03:45.765Z,43.64
2022-10-10T09:06:35.746Z,42.68
2022-10-10T09:09:20.435Z,42.11
2022-10-10T09:12:05.674Z,43.02
2022-10-10T09:14:42.254Z,43.38
2022-10-10T09:17:27.106Z,44.58
2022-10-10T09:20:09.604Z,45.27
2022-10-10T09:22:52.958Z,46.03
2022-10-10T09:25:27.401Z,46.82
2022-10-10T09:28:06.110Z,46.28
2022-10-10T09:30:40.753Z,46.65
2022-10-10T09:33:24.693Z,46.99
2022-10-10T09:35:57.434Z,47.35
2022-10-10T09:38:38.143Z,47.37
2022-10-10T09:41:18.234Z,47.61
2022-10-10T09:43:48.526Z,46.02
2022-10-10T09:46:19.012Z,45.28
2022-10-10T09:48:49.258Z,44.80
2022-10-10T09:51:22.542Z,46.02
2022-10-10T09:53:55.314Z,45.46
2022-10-10T09:56:29.325Z,45.50
2022-10-10T09:58:59.974Z,45.31
2022-10-10T10:01:32.826Z,45.28
2022-10-10T10:04:28.267Z,44.78
2022-10-10T10:07:09.274Z,44.55
2022-10-10T10:09:42.088Z,43.66
2022-10-10T10:12:14.789Z,43.04
2022-10-10T10:14:47.089Z,43.52
2022-10-10T10:17:20.620Z,43.98
2022-10-10T10:19:51.198Z,43.09
2022-10-10T10:22:34.484Z,41.83
2022-10-10T10:25:35.417Z,41.26
2022-10-10T10:28:23.604Z,41.21
2022-10-10T10:30:57.035Z,40.94
2022-10-10T10:33:41.488Z,40.30
2022-10-10T10:36:26.582Z,40.26
2022-10-10T10:39:13.654Z,39.38
2022-10-10T10:41:54.662Z,38.81
2022-10-10T10:44:38.031Z,39.40
2022-10-10T10:47:28.782Z,39.14
2022-10-10T10:50:16.809Z,38.77
2022-10-10T10:53:00.194Z,38.37
2022-10-10T10:55:40.569Z,36.26
2022-10-10T10:59:15.948Z,35.82
2022-10-10T11:01:55.985Z,34.46
2022-10-10T11:05:22.168Z,32.10
2022-10-10T11:07:56.086Z,31.32
2022-10-10T11:10:38.104Z,30.37
2022-10-10T11:13:17.490Z,29.02
2022-10-10T11:16:20.367Z,27.60
2022-10-10T11:18:54.705Z,27.73
2022-10-10T11:21:31.705Z,26.82
2022-10-10T11:24:09.105Z,26.19
2022-10-10T11:26:44.021Z,24.91
2022-10-10T11:29:19.267Z,24.59
2022-10-10T11:31:58.935Z,24.64
2022-10-10T11:34:34.712Z,23.72
2022-10-10T11:37:11.701Z,23.29
2022-10-10T11:39:47.713Z,23.75
2022-10-10T11:42:23.642Z,23.75
2022-10-10T11:45:00.732Z,24.28
2022-10-10T11:47:39.069Z,25.33
2022-10-10T11:50:20.524Z,25.23
2022-10-10T11:52:58.793Z,22.62
2022-10-10T11:55:39.825Z,22.71
2022-10-10T11:58:36.358Z,23.18
2022-10-10T12:01:17.370Z,23.00
2022-10-10T12:03:50.243Z,22.95
2022-10-10T12:06:28.026Z,23.40
2022-10-10T12:09:06.871Z,26.04
2022-10-10T12:11:44.868Z,26.18
2022-10-10T12:14:20.098Z,27.21
2022-10-10T12:16:52.117Z,27.98
2022-10-10T12:19:27.373Z,29.94
2022-10-10T12:22:01.669Z,31.21
2022-10-10T12:24:36.243Z,31.52
2022-10-10T12:27:33.059Z,33.04
2022-10-10T12:30:21.619Z,31.78
2022-10-10T12:32:54.392Z,32.54
2022-10-10T12:35:43.057Z,29.84
2022-10-10T12:38:25.886Z,26.90
2022-10-10T12:41:20.017Z,25.81
2022-10-10T12:44:15.700Z,23.89
2022-10-10T12:46:48.945Z,23.67
2022-10-10T12:49:24.680Z,22.92
2022-10-10T12:52:25.378Z,22.37
2022-10-10T12:54:57.740Z,21.46
2022-10-10T12:57:35.180Z,21.89
2022-10-10T13:00:17.869Z,21.97
2022-10-10T13:02:53.012Z,22.08
2022-10-10T13:05:32.420Z,22.64
2022-10-10T13:08:08.045Z,22.33
2022-10-10T13:10:38.512Z,21.33
2022-10-10T13:13:19.830Z,20.27
2022-10-10T13:15:58.510Z,23.95
2022-10-10T13:18:37.758Z,22.85
2022-10-10T13:21:14.371Z,22.86
2022-10-10T13:26:47.310Z,22.84
2022-10-10T13:29:27.588Z,22.59
2022-10-10T13:32:03.483Z,23.14
2022-10-10T13:34:40.049Z,23.89
2022-10-10T13:37:10.679Z,24.22
2022-10-10T13:39:43.830Z,24.20
2022-10-10T13:42:31.676Z,24.96
2022-10-10T13:45:03.384Z,27.28
2022-10-10T13:47:54.489Z,29.25
2022-10-10T13:50:31.877Z,31.32
2022-10-10T13:53:32.493Z,33.93
2022-10-10T13:56:13.725Z,35.24
2022-10-10T13:58:47.842Z,35.79
2022-10-10T14:01:35.422Z,36.35
2022-10-10T14:04:18.167Z,37.34
2022-10-10T14:06:59.350Z,38.76
2022-10-10T14:09:35.655Z,39.55
2022-10-10T14:12:11.851Z,40.57
2022-10-10T14:14:48.548Z,41.63
2022-10-10T14:17:20.036Z,42.86
2022-10-10T14:19:52.262Z,43.71
2022-10-10T14:22:23.592Z,43.46
2022-10-10T14:24:54.036Z,44.16
2022-10-10T14:27:31.291Z,43.79
2022-10-10T14:30:04.205Z,43.82
2022-10-10T14:32:34.397Z,43.37
2022-10-10T14:35:04.797Z,44.26
2022-10-10T14:37:38.693Z,45.24
2022-10-10T14:40:22.897Z,45.90
2022-10-10T14:42:55.704Z,46.53
2022-10-10T14:45:25.955Z,46.50
2022-10-10T14:47:56.218Z,48.46
2022-10-10T14:50:30.671Z,49.06
2022-10-10T14:53:00.903Z,49.76
2022-10-10T14:55:31.563Z,49.97
2022-10-10T14:58:04.725Z,51.35
2022-10-10T15:00:35.418Z,51.80
2022-10-10T15:03:05.751Z,51.50
2022-10-10T15:05:36.030Z,50.58
2022-10-10T15:08:06.465Z,50.36
2022-10-10T15:10:36.917Z,50.78
2022-10-10T15:13:09.838Z,50.93
2022-10-10T15:15:40.060Z,49.35
2022-10-10T15:18:32.148Z,47.86
2022-10-10T15:21:02.112Z,48.42
2022-10-10T15:23:32.258Z,49.28
2022-10-10T15:26:03.163Z,50.58
2022-10-10T15:28:36.986Z,51.32
2022-10-10T15:31:07.965Z,52.26
2022-10-10T15:33:38.229Z,53.18
2022-10-10T15:36:14.738Z,54.19
2022-10-10T15:38:47.161Z,55.39
2022-10-10T15:41:17.308Z,55.87
2022-10-10T15:43:54.784Z,56.76
2022-10-10T15:46:27.064Z,57.26
2022-10-10T15:48:58.193Z,57.74
2022-10-10T15:51:28.493Z,57.43
2022-10-10T15:53:59.751Z,57.75
2022-10-10T15:56:30.729Z,58.05
2022-10-10T15:59:05.562Z,58.71
2022-10-10T16:01:35.849Z,58.99
2022-10-10T16:04:07.637Z,59.47
2022-10-10T16:06:37.891Z,60.32
2022-10-10T16:09:27.558Z,60.57
2022-10-10T16:11:58.225Z,60.22
2022-10-10T16:14:31.522Z,60.45
2022-10-10T16:17:02.375Z,61.19
2022-10-10T16:19:32.630Z,61.22
2022-10-10T16:22:02.992Z,61.33
2022-10-10T16:24:34.301Z,61.34
2022-10-10T16:27:04.677Z,61.53
2022-10-10T16:29:37.540Z,61.89
2022-10-10T16:32:08.197Z,61.88
2022-10-10T16:34:38.347Z,62.53
2022-10-10T16:37:08.508Z,62.47
2022-10-10T16:39:38.874Z,63.31
2022-10-10T16:42:10.672Z,63.48
2022-10-10T16:44:43.545Z,63.85
2022-10-10T16:47:14.127Z,64.11
2022-10-10T16:49:44.252Z,64.29
2022-10-10T16:52:14.432Z,64.65
2022-10-10T16:54:46.912Z,65.25
2022-10-10T16:57:20.566Z,65.48
2022-10-10T16:59:53.333Z,65.79
2022-10-10T17:02:25.159Z,65.76
2022-10-10T17:04:57.433Z,66.37
2022-10-10T17:07:27.687Z,67.06
2022-10-10T17:09:57.844Z,67.61
2022-10-10T17:12:28.170Z,67.69
2022-10-10T17:15:01.688Z,67.84
2022-10-10T17:17:31.875Z,68.45
2022-10-10T17:20:02.231Z,68.36
2022-10-10T17:22:32.656Z,68.96
2022-10-10T17:25:02.913Z,69.10
2022-10-10T17:27:35.189Z,68.84
2022-10-10T17:30:12.635Z,68.65
2022-10-10T17:32:44.922Z,68.19
2022-10-10T17:35:15.368Z,68.41
2022-10-10T17:37:45.647Z,68.23
2022-10-10T17:40:16.305Z,68.60
2022-10-10T17:42:46.473Z,69.07
2022-10-10T17:45:19.495Z,69.11
2022-10-10T17:47:49.779Z,69.43
2022-10-10T17:50:20.272Z,69.84
2022-10-10T17:52:50.483Z,69.39
2022-10-10T17:55:20.806Z,69.51
2022-10-10T17:57:51.026Z,70.03
2022-10-10T18:00:23.989Z,70.40
2022-10-10T18:02:54.321Z,70.09
2022-10-10T18:05:24.468Z,70.97
2022-10-10T18:07:55.391Z,70.85
2022-10-10T18:10:25.261Z,71.04
2022-10-10T18:12:55.451Z,72.01
2022-10-10T18:15:29.494Z,71.93
2022-10-10T18:17:59.812Z,72.67
2022-10-10T18:20:30.045Z,73.23
2022-10-10T18:23:00.681Z,73.78
2022-10-10T18:25:30.880Z,74.16
2022-10-10T18:28:02.167Z,74.55
2022-10-10T18:30:34.956Z,75.10
2022-10-10T18:33:05.195Z,75.86
2022-10-10T18:35:35.371Z,75.92
2022-10-10T18:38:05.630Z,75.97
2022-10-10T18:40:35.766Z,75.77
2022-10-10T18:43:05.976Z,75.28
2022-10-10T18:45:38.869Z,75.11
2022-10-10T18:48:09.622Z,74.54
2022-10-10T18:50:39.918Z,74.81
2022-10-10T18:53:10.054Z,75.21
2022-10-10T18:55:40.227Z,75.58
2022-10-10T18:58:10.487Z,76.48
2022-10-10T19:00:45.750Z,76.23
2022-10-10T19:03:16.560Z,76.00
2022-10-10T19:05:46.705Z,76.73
2022-10-10T19:08:16.895Z,77.35
2022-10-10T19:10:51.115Z,77.47
2022-10-10T19:13:22.216Z,77.13
2022-10-10T19:15:55.327Z,78.02
2022-10-10T19:18:26.149Z,79.23
2022-10-10T19:21:02.605Z,79.44
2022-10-10T19:23:33.670Z,79.39
2022-10-10T19:26:06.127Z,79.52
2022-10-10T19:28:38.110Z,80.19
2022-10-10T19:31:13.803Z,80.69
2022-10-10T19:33:45.295Z,81.07
2022-10-10T19:36:16.253Z,81.24
2022-10-10T19:38:46.565Z,81.68
2022-10-10T19:41:17.782Z,81.48
2022-10-10T19:43:52.218Z,81.26
2022-10-10T19:46:27.103Z,81.34
2022-10-10T19:49:00.772Z,79.42
2022-10-10T19:51:32.391Z,79.66
2022-10-10T19:54:02.654Z,79.85
2022-10-10T19:56:32.875Z,80.64
2022-10-10T19:59:05.883Z,81.18
2022-10-10T20:01:39.300Z,81.45
2022-10-10T20:04:09.444Z,82.18
2022-10-10T20:06:41.342Z,83.39
2022-10-10T20:09:12.062Z,84.05
2022-10-10T20:11:42.604Z,84.98
2022-10-10T20:14:13.262Z,84.76
2022-10-10T20:16:46.211Z,84.99
2022-10-10T20:19:16.346Z,86.13
2022-10-10T20:21:46.508Z,85.46
2022-10-10T20:24:16.975Z,85.45
2022-10-10T20:26:47.213Z,85.33
2022-10-10T20:29:17.490Z,83.38
2022-10-10T20:31:50.389Z,84.15
2022-10-10T20:34:20.675Z,87.41
2022-10-10T20:36:50.935Z,87.45
2022-10-10T20:39:21.205Z,88.07
2022-10-10T20:41:51.497Z,88.73
2022-10-10T20:44:21.676Z,87.60
2022-10-10T20:46:54.541Z,86.05
2022-10-10T20:49:25.860Z,84.60
2022-10-10T20:51:56.115Z,84.44
2022-10-10T20:54:27.593Z,85.57
2022-10-10T20:56:57.805Z,85.58
2022-10-10T20:59:29.376Z,86.84
2022-10-10T21:02:02.346Z,87.06
2022-10-10T21:04:32.638Z,87.42
2022-10-10T21:07:03.045Z,87.83
2022-10-10T21:09:33.336Z,88.37
2022-10-10T21:12:03.621Z,87.61
2022-10-10T21:14:33.866Z,86.90
2022-10-10T21:17:06.761Z,88.67
2022-10-10T21:19:36.938Z,91.21
2022-10-10T21:22:07.163Z,92.18
2022-10-10T21:24:37.332Z,92.52
2022-10-10T21:27:07.847Z,92.35
2022-10-10T21:29:38.314Z,93.19
2022-10-10T21:32:11.130Z,93.46
2022-10-10T21:34:41.655Z,93.33
2022-10-10T21:37:11.857Z,93.86
2022-10-10T21:39:42.093Z,94.21
2022-10-10T21:42:12.318Z,94.60
2022-10-10T21:44:42.438Z,94.49
2022-10-10T21:47:15.168Z,95.26
2022-10-10T21:49:45.695Z,94.59
2022-10-10T21:52:15.889Z,94.09
2022-10-10T21:54:46.012Z,92.99
2022-10-10T21:57:16.197Z,89.26
2022-10-10T21:59:46.316Z,89.11
2022-10-10T22:02:19.052Z,88.75
2022-10-10T22:04:54.748Z,89.89
2022-10-10T22:07:24.957Z,90.91
2022-10-10T22:09:58.130Z,91.58
2022-10-10T22:12:28.472Z,92.00
2022-10-10T22:14:58.642Z,93.59
2022-10-10T22:17:31.454Z,93.57
2022-10-10T22:20:01.773Z,92.25
2022-10-10T22:22:32.033Z,90.84
2022-10-10T22:25:02.381Z,91.70
2022-10-10T22:27:32.681Z,90.51
2022-10-10T22:30:03.083Z,90.13
2022-10-10T22:32:36.730Z,90.37
2022-10-10T22:35:08.475Z,90.35
2022-10-10T22:37:38.824Z,91.88
2022-10-10T22:40:14.072Z,92.88
2022-10-10T22:42:44.801Z,93.22
2022-10-10T22:45:15.101Z,93.22
2022-10-10T22:47:47.897Z,92.91
2022-10-10T22:50:18.539Z,94.30
2022-10-10T22:52:48.851Z,92.60
2022-10-10T22:55:20.397Z,93.07
2022-10-10T22:57:50.657Z,92.62
2022-10-10T23:00:21.312Z,92.59
2022-10-10T23:02:54.230Z,92.87
2022-10-10T23:05:24.461Z,93.20
2022-10-10T23:07:55.354Z,94.22
2022-10-10T23:10:25.728Z,95.44
2022-10-10T23:12:56.050Z,97.14
2022-10-10T23:15:26.206Z,97.75
2022-10-10T23:17:58.970Z,98.20
2022-10-10T23:20:29.339Z,98.34
2022-10-10T23:23:00.279Z,98.70
2022-10-10T23:25:30.435Z,99.63
2022-10-10T23:28:00.698Z,100.00
2022-10-10T23:30:31.283Z,100.00
2022-10-10T23:33:04.136Z,99.39
2022-10-10T23:35:34.401Z,99.23
2022-10-10T23:38:05.139Z,99.61
2022-10-10T23:40:35.733Z,100.00
2022-10-10T23:43:07.513Z,99.89
2022-10-10T23:45:38.055Z,100.00
2022-10-10T23:48:10.983Z,99.63
2022-10-10T23:50:41.322Z,99.61
2022-10-10T23:53:12.313Z,99.64
2022-10-10T23:55:42.248Z,100.00
2022-10-10T23:58:13.955Z,100.00
